Time;durP1;ratioP1;P1;durP2;ratioP2;P2;SDS_P1;SDS_P2;PMS_P1;PMS_P2;Temp;Humidity;BMP_temperature;BMP_pressure;BME280_temperature;BME280_humidity;BME280_pressure;Samples;Min_cycle;Max_cycle;Signal;HPM_P1;HPM_P2
2023/07/11 00:01:46;;;;;;;0.10;0.10;;;17.40;99.90;;;;;;5039312;28;20100;-76
2023/07/11 00:04:11;;;;;;;0.10;0.10;;;17.30;99.90;;;;;;5038943;28;20104;-79
2023/07/11 00:06:38;;;;;;;0.10;0.10;;;19.20;99.90;;;;;;5039510;28;20021;-77
2023/07/11 00:09:05;;;;;;;0.10;0.10;;;17.20;99.90;;;;;;5039230;28;20029;-76
2023/07/11 00:11:31;;;;;;;0.10;0.10;;;17.20;99.90;;;;;;5039100;28;20021;-77
2023/07/11 00:13:59;;;;;;;0.10;0.10;;;17.10;99.90;;;;;;5039275;28;20013;-77
2023/07/11 00:16:25;;;;;;;0.10;0.10;;;17.00;99.90;;;;;;5039132;28;20020;-77
2023/07/11 00:18:51;;;;;;;0.10;0.10;;;17.00;99.90;;;;;;5038702;28;20032;-79
2023/07/11 00:21:16;;;;;;;1.08;0.95;;;17.10;99.90;;;;;;5038805;28;20612;-80
2023/07/11 00:23:42;;;;;;;0.13;0.13;;;16.70;99.90;;;;;;5038857;28;20025;-74
2023/07/11 00:26:08;;;;;;;2.63;1.55;;;17.50;99.90;;;;;;5038845;28;20017;-79
2023/07/11 00:28:34;;;;;;;0.10;0.10;;;17.20;99.90;;;;;;5039132;28;20025;-75
2023/07/11 00:31:00;;;;;;;0.28;0.28;;;17.30;99.90;;;;;;5038997;28;20024;-76
2023/07/11 00:33:26;;;;;;;1.83;1.83;;;17.50;99.90;;;;;;5038360;28;20021;-76
2023/07/11 00:35:53;;;;;;;0.30;0.30;;;17.50;99.90;;;;;;5038496;28;20724;-81
2023/07/11 00:38:20;;;;;;;0.10;0.10;;;17.40;99.90;;;;;;5038404;28;20120;-82
2023/07/11 00:40:49;;;;;;;1.30;1.30;;;17.60;99.90;;;;;;5038350;28;20720;-78
2023/07/11 00:43:17;;;;;;;0.10;0.10;;;17.80;99.90;;;;;;5038822;28;20024;-76
2023/07/11 00:45:52;;;;;;;0.10;0.10;;;17.80;99.90;;;;;;5038656;28;20499;-77
2023/07/11 00:48:21;;;;;;;1.85;1.75;;;17.60;99.90;;;;;;5038401;28;20515;-74
2023/07/11 00:50:48;;;;;;;0.10;0.10;;;18.10;99.90;;;;;;5038139;28;20025;-75
2023/07/11 00:53:15;;;;;;;0.10;0.10;;;17.80;99.90;;;;;;5038569;28;20021;-77
2023/07/11 00:55:42;;;;;;;0.10;0.10;;;17.70;99.90;;;;;;5038407;28;20062;-77
2023/07/11 00:58:08;;;;;;;0.32;0.32;;;17.50;99.90;;;;;;5037706;28;20215;-83
2023/07/11 01:00:34;;;;;;;0.10;0.10;;;17.50;99.90;;;;;;5038377;28;20114;-80
2023/07/11 01:03:00;;;;;;;0.10;0.10;;;17.40;99.90;;;;;;5037629;28;20027;-74
2023/07/11 01:05:25;;;;;;;0.20;0.20;;;17.20;99.90;;;;;;5037987;28;20013;-77
2023/07/11 01:07:51;;;;;;;0.10;0.10;;;17.00;99.90;;;;;;5037412;28;20067;-74
2023/07/11 01:10:17;;;;;;;0.10;0.10;;;16.70;99.90;;;;;;5038562;28;20217;-74
2023/07/11 01:12:46;;;;;;;0.10;0.10;;;19.10;99.90;;;;;;5037437;28;20663;-75
2023/07/11 01:15:12;;;;;;;0.10;0.10;;;16.60;99.90;;;;;;5037907;28;20225;-77
2023/07/11 01:17:38;;;;;;;0.10;0.10;;;16.50;99.90;;;;;;5037703;28;20693;-75
2023/07/11 01:20:07;;;;;;;0.10;0.10;;;16.40;99.90;;;;;;5037853;28;20025;-75
2023/07/11 01:22:38;;;;;;;0.10;0.10;;;16.40;99.90;;;;;;5036378;28;20610;-75
2023/07/11 01:25:13;;;;;;;2.45;2.35;;;17.00;99.90;;;;;;5036452;28;20021;-74
2023/07/11 01:27:41;;;;;;;0.10;0.10;;;17.00;99.90;;;;;;5037579;28;20086;-80
2023/07/11 01:30:10;;;;;;;0.10;0.10;;;16.60;99.90;;;;;;5037561;28;20608;-79
2023/07/11 01:32:36;;;;;;;0.17;0.17;;;16.60;99.90;;;;;;5037406;28;20510;-79
2023/07/11 01:35:03;;;;;;;0.10;0.10;;;16.50;99.90;;;;;;5037916;28;20566;-77
2023/07/11 01:37:30;;;;;;;0.10;0.10;;;16.50;99.90;;;;;;5036405;28;20175;-76
2023/07/11 01:39:56;;;;;;;0.10;0.10;;;16.80;99.90;;;;;;5037489;28;20052;-74
2023/07/11 01:42:22;;;;;;;0.10;0.10;;;;;;;;;;5037217;28;20464;-74
2023/07/11 01:44:48;;;;;;;0.63;0.63;;;16.50;99.90;;;;;;5038167;28;20028;-76
2023/07/11 01:47:14;;;;;;;0.10;0.10;;;16.60;99.90;;;;;;5037551;28;20692;-74
2023/07/11 01:49:40;;;;;;;0.10;0.10;;;16.60;99.90;;;;;;5036224;28;20040;-80
2023/07/11 01:52:18;;;;;;;0.40;0.40;;;16.50;99.90;;;;;;5037779;28;20075;-73
2023/07/11 01:54:44;;;;;;;4.63;4.28;;;17.00;99.90;;;;;;5037629;28;20100;-83
2023/07/11 01:57:09;;;;;;;1.00;1.00;;;17.00;99.90;;;;;;5037439;28;20140;-76
2023/07/11 01:59:36;;;;;;;0.10;0.10;;;17.20;99.90;;;;;;5037769;28;20051;-74
2023/07/11 02:02:03;;;;;;;0.40;0.40;;;18.20;99.90;;;;;;5037368;28;20187;-80
2023/07/11 02:04:29;;;;;;;0.20;0.20;;;18.30;99.90;;;;;;5037398;28;20048;-73
2023/07/11 02:06:55;;;;;;;0.10;0.10;;;18.50;99.90;;;;;;5037711;28;20103;-77
2023/07/11 02:09:22;;;;;;;0.10;0.10;;;18.40;99.90;;;;;;5037585;28;20028;-76
2023/07/11 02:11:48;;;;;;;0.10;0.10;;;18.80;99.90;;;;;;5037134;28;20283;-73
2023/07/11 02:14:20;;;;;;;0.10;0.10;;;19.20;99.90;;;;;;5036893;28;20021;-79
2023/07/11 02:16:46;;;;;;;0.20;0.20;;;19.10;99.90;;;;;;5035672;28;20217;-78
2023/07/11 02:19:14;;;;;;;2.10;2.00;;;18.80;99.90;;;;;;5037940;28;20816;-82
2023/07/11 02:21:40;;;;;;;0.10;0.10;;;18.30;99.90;;;;;;5040803;28;20018;-75
2023/07/11 02:24:08;;;;;;;0.10;0.10;;;18.10;99.90;;;;;;5040923;28;20025;-79
2023/07/11 02:26:34;;;;;;;0.15;0.15;;;17.70;99.90;;;;;;5040838;28;20009;-79
2023/07/11 02:29:00;;;;;;;0.10;0.10;;;17.40;99.90;;;;;;5040744;28;20678;-83
2023/07/11 02:31:26;;;;;;;5.72;2.40;;;17.20;99.90;;;;;;5039367;28;20024;-83
2023/07/11 02:33:53;;;;;;;0.10;0.10;;;16.70;99.90;;;;;;5040165;28;20221;-76
2023/07/11 02:36:19;;;;;;;0.35;0.35;;;16.70;99.90;;;;;;5040830;28;20029;-84
2023/07/11 02:38:45;;;;;;;0.10;0.10;;;16.50;99.90;;;;;;5039430;28;20025;-73
2023/07/11 02:41:11;;;;;;;0.10;0.10;;;17.10;99.90;;;;;;5039530;28;20120;-76
2023/07/11 02:43:37;;;;;;;1.10;1.00;;;17.10;99.90;;;;;;5039598;28;20026;-80
2023/07/11 02:46:03;;;;;;;0.10;0.10;;;16.60;99.90;;;;;;5040462;28;20536;-82
2023/07/11 02:48:29;;;;;;;0.10;0.10;;;16.80;99.90;;;;;;5040588;28;20040;-81
2023/07/11 02:50:55;;;;;;;0.10;0.10;;;17.20;99.90;;;;;;5040761;28;20029;-80
2023/07/11 02:53:21;;;;;;;0.10;0.10;;;17.70;99.90;;;;;;5040532;28;20060;-77
2023/07/11 02:55:50;;;;;;;0.10;0.10;;;17.90;99.90;;;;;;5039294;28;20082;-75
2023/07/11 02:58:16;;;;;;;0.10;0.10;;;17.90;99.90;;;;;;5040165;28;20054;-81
2023/07/11 03:00:50;;;;;;;0.10;0.10;;;18.00;99.90;;;;;;5040140;28;20078;-81
2023/07/11 03:03:16;;;;;;;;;;;17.70;99.90;;;;;;5039360;28;20025;-75
2023/07/11 03:05:47;;;;;;;0.15;0.15;;;18.20;99.90;;;;;;5040765;28;19959;-74
2023/07/11 03:08:13;;;;;;;0.17;0.17;;;18.00;99.90;;;;;;5040470;28;20678;-84
2023/07/11 03:10:39;;;;;;;0.20;0.20;;;17.00;99.90;;;;;;5040439;28;20075;-79
2023/07/11 03:13:05;;;;;;;0.10;0.10;;;17.00;99.90;;;;;;5040778;28;20033;-82
2023/07/11 03:15:33;;;;;;;0.10;0.10;;;16.70;99.90;;;;;;5039946;28;20017;-77
2023/07/11 03:17:59;;;;;;;0.10;0.10;;;17.20;99.90;;;;;;5040384;28;20667;-77
2023/07/11 03:20:25;;;;;;;0.10;0.10;;;17.50;99.90;;;;;;5040212;28;20031;-81
2023/07/11 03:22:51;;;;;;;0.13;0.13;;;17.40;99.90;;;;;;5039936;28;20101;-77
2023/07/11 03:25:17;;;;;;;0.10;0.10;;;17.10;99.90;;;;;;5039993;28;20100;-75
2023/07/11 03:27:43;;;;;;;0.10;0.10;;;17.30;99.90;;;;;;5039940;28;20025;-80
2023/07/11 03:30:09;;;;;;;0.17;0.17;;;17.20;99.90;;;;;;5028768;28;20692;-84
2023/07/11 03:32:35;;;;;;;14.00;2.85;;;17.60;99.90;;;;;;5019866;28;20014;-77
2023/07/11 03:35:01;;;;;;;0.20;0.20;;;18.00;99.90;;;;;;5018651;28;20695;-80
2023/07/11 03:37:26;;;;;;;0.20;0.20;;;17.40;99.90;;;;;;5018747;28;20029;-78
2023/07/11 03:39:52;;;;;;;0.80;0.80;;;17.80;99.90;;;;;;5019630;28;20022;-81
2023/07/11 03:42:18;;;;;;;0.10;0.10;;;17.70;99.90;;;;;;5020895;28;20026;-76
2023/07/11 03:44:44;;;;;;;0.10;0.10;;;17.60;99.90;;;;;;5040202;28;20029;-79
2023/07/11 03:47:10;;;;;;;0.20;0.20;;;17.60;99.90;;;;;;5039305;28;20423;-81
2023/07/11 03:49:36;;;;;;;0.10;0.10;;;17.90;99.90;;;;;;5039385;28;20013;-77
2023/07/11 03:52:02;;;;;;;0.35;0.35;;;17.40;99.90;;;;;;5039646;28;20021;-76
2023/07/11 03:54:28;;;;;;;0.10;0.10;;;17.60;99.90;;;;;;5039445;28;20021;-76
2023/07/11 03:56:53;;;;;;;0.10;0.10;;;17.40;99.90;;;;;;5037975;28;20118;-81
2023/07/11 03:59:19;;;;;;;0.10;0.10;;;17.00;99.90;;;;;;5039431;28;20037;-78
2023/07/11 04:01:47;;;;;;;1.00;1.00;;;17.10;99.90;;;;;;5037799;28;20590;-80
2023/07/11 04:04:13;;;;;;;0.10;0.10;;;17.40;99.90;;;;;;5038997;28;20032;-78
2023/07/11 04:06:39;;;;;;;0.10;0.10;;;17.60;99.90;;;;;;5039261;28;20032;-82
2023/07/11 04:09:04;;;;;;;0.88;0.75;;;17.80;99.90;;;;;;5039093;28;20423;-77
2023/07/11 04:11:30;;;;;;;0.10;0.10;;;18.10;99.90;;;;;;5039020;28;20155;-78
2023/07/11 04:13:56;;;;;;;1.27;1.27;;;18.50;99.90;;;;;;5038921;28;20066;-77
2023/07/11 04:16:22;;;;;;;0.10;0.10;;;18.30;99.90;;;;;;5038714;28;20110;-77
2023/07/11 04:18:48;;;;;;;0.10;0.10;;;18.70;99.90;;;;;;5036919;28;20136;-78
2023/07/11 04:21:14;;;;;;;0.10;0.10;;;18.60;99.90;;;;;;5038896;28;20013;-77
2023/07/11 04:23:39;;;;;;;0.10;0.10;;;18.80;99.90;;;;;;5039131;28;20020;-82
2023/07/11 04:26:05;;;;;;;0.10;0.10;;;19.30;99.90;;;;;;5039179;28;20017;-74
2023/07/11 04:28:31;;;;;;;0.38;0.38;;;19.60;99.90;;;;;;5038323;28;20049;-81
2023/07/11 04:30:57;;;;;;;0.10;0.10;;;19.50;99.90;;;;;;5038617;28;20602;-77
2023/07/11 04:33:23;;;;;;;0.10;0.10;;;19.40;99.90;;;;;;5038959;28;20027;-79
2023/07/11 04:35:48;;;;;;;0.10;0.10;;;19.50;99.90;;;;;;5038315;28;20020;-81
2023/07/11 04:38:14;;;;;;;0.40;0.40;;;19.10;99.90;;;;;;5038586;28;20033;-74
2023/07/11 04:40:40;;;;;;;0.10;0.10;;;19.10;99.90;;;;;;5038741;28;20017;-77
2023/07/11 04:43:06;;;;;;;0.52;0.52;;;19.20;99.90;;;;;;5037427;28;20181;-76
2023/07/11 04:45:34;;;;;;;0.10;0.10;;;19.10;99.90;;;;;;5038394;28;20037;-78
2023/07/11 04:48:01;;;;;;;1.00;0.98;;;18.90;99.90;;;;;;5038308;28;20020;-83
2023/07/11 04:50:26;;;;;;;0.22;0.22;;;18.70;99.90;;;;;;5037101;28;20017;-82
2023/07/11 04:52:52;;;;;;;0.10;0.10;;;18.40;99.90;;;;;;5038433;28;20809;-77
2023/07/11 04:55:18;;;;;;;0.00;0.00;;;18.30;99.90;;;;;;5038539;28;20716;-81
2023/07/11 04:57:44;;;;;;;0.10;0.10;;;;;;;;;;5036708;28;20051;-75
2023/07/11 05:00:11;;;;;;;0.30;0.30;;;18.20;99.90;;;;;;5038164;28;20021;-74
2023/07/11 05:02:37;;;;;;;0.10;0.10;;;18.60;99.90;;;;;;5037843;28;20017;-81
2023/07/11 05:05:03;;;;;;;0.10;0.10;;;19.00;99.90;;;;;;5038166;28;20028;-77
2023/07/11 05:07:28;;;;;;;0.15;0.15;;;19.70;99.90;;;;;;5037806;28;20021;-74
2023/07/11 05:09:54;;;;;;;0.55;0.55;;;19.10;99.90;;;;;;5037701;28;20120;-74
2023/07/11 05:12:20;;;;;;;1.08;1.08;;;19.50;99.90;;;;;;5038086;28;20536;-75
2023/07/11 05:14:47;;;;;;;0.20;0.20;;;19.80;99.90;;;;;;5037403;28;20016;-76
2023/07/11 05:17:13;;;;;;;0.13;0.13;;;20.20;99.90;;;;;;5036285;28;20033;-81
2023/07/11 05:19:39;;;;;;;0.10;0.10;;;20.50;99.90;;;;;;5037780;28;20016;-79
2023/07/11 05:22:05;;;;;;;0.20;0.20;;;20.70;99.90;;;;;;5037989;28;20021;-74
2023/07/11 05:24:31;;;;;;;0.13;0.13;;;20.90;99.90;;;;;;5037684;28;20112;-74
2023/07/11 05:26:56;;;;;;;0.10;0.10;;;21.00;99.90;;;;;;5037295;28;20044;-78
2023/07/11 05:29:23;;;;;;;0.10;0.10;;;21.00;99.90;;;;;;5037521;28;20021;-80
2023/07/11 05:31:48;;;;;;;0.10;0.10;;;20.90;99.90;;;;;;5037520;28;20017;-77
2023/07/11 05:34:14;;;;;;;0.15;0.15;;;21.10;99.90;;;;;;5037340;28;20036;-79
2023/07/11 05:36:40;;;;;;;0.10;0.10;;;21.00;99.90;;;;;;5037240;28;20403;-77
2023/07/11 05:39:14;;;;;;;0.40;0.40;;;21.10;99.90;;;;;;5037398;28;20029;-81
2023/07/11 05:41:49;;;;;;;0.10;0.10;;;20.90;99.90;;;;;;5037319;28;20032;-75
2023/07/11 05:44:16;;;;;;;0.88;0.88;;;20.80;99.90;;;;;;5037305;28;20017;-79
2023/07/11 05:46:42;;;;;;;0.10;0.10;;;20.60;99.90;;;;;;5035785;28;20660;-77
2023/07/11 05:49:08;;;;;;;0.10;0.10;;;20.80;99.90;;;;;;5037659;28;20590;-74
2023/07/11 05:51:34;;;;;;;0.17;0.17;;;20.70;99.90;;;;;;5037261;28;20484;-79
2023/07/11 05:54:00;;;;;;;0.47;0.47;;;20.90;99.90;;;;;;5037107;28;20074;-79
2023/07/11 05:56:26;;;;;;;0.10;0.10;;;20.90;99.90;;;;;;5037010;28;20017;-78
2023/07/11 05:58:53;;;;;;;0.45;0.45;;;20.70;99.90;;;;;;5036944;28;20182;-82
2023/07/11 06:01:24;;;;;;;0.10;0.10;;;20.60;99.90;;;;;;5037559;28;20021;-76
2023/07/11 06:04:00;;;;;;;0.13;0.13;;;20.90;99.90;;;;;;5036931;28;20023;-73
2023/07/11 06:06:26;;;;;;;0.20;0.20;;;21.10;99.90;;;;;;5037174;28;20648;-78
2023/07/11 06:08:52;;;;;;;0.20;0.20;;;21.30;99.90;;;;;;5037181;28;20092;-81
2023/07/11 06:11:18;;;;;;;0.30;0.30;;;21.60;99.90;;;;;;5037071;28;20559;-77
2023/07/11 06:13:43;;;;;;;0.43;0.43;;;21.60;99.90;;;;;;5036715;28;20671;-76
2023/07/11 06:16:15;;;;;;;0.47;0.47;;;21.40;99.90;;;;;;5037065;28;20709;-78
2023/07/11 06:18:41;;;;;;;0.63;0.63;;;21.90;99.90;;;;;;5036889;28;20033;-73
2023/07/11 06:21:08;;;;;;;0.00;0.00;;;22.00;99.90;;;;;;5037387;28;20649;-75
2023/07/11 06:23:34;;;;;;;0.98;0.98;;;22.20;99.90;;;;;;5036797;28;20013;-82
2023/07/11 06:26:00;;;;;;;0.10;0.10;;;22.10;99.90;;;;;;5037144;28;20646;-77
2023/07/11 06:28:26;;;;;;;0.10;0.10;;;22.10;99.90;;;;;;5036904;28;20469;-84
2023/07/11 06:30:56;;;;;;;0.30;0.25;;;22.80;99.90;;;;;;5036964;28;20032;-75
2023/07/11 06:33:22;;;;;;;1.85;1.70;;;22.30;99.90;;;;;;5035764;28;20025;-74
2023/07/11 06:35:49;;;;;;;0.10;0.10;;;22.30;99.90;;;;;;5036811;28;20083;-80
2023/07/11 06:38:16;;;;;;;0.10;0.10;;;22.40;99.90;;;;;;5037487;28;20530;-73
2023/07/11 06:40:53;;;;;;;0.10;0.10;;;22.20;99.90;;;;;;5036854;28;20659;-74
2023/07/11 06:43:19;;;;;;;0.30;0.30;;;22.10;99.90;;;;;;5037361;28;20613;-74
2023/07/11 06:45:47;;;;;;;0.10;0.10;;;22.20;99.90;;;;;;5035995;28;20171;-75
2023/07/11 06:48:14;;;;;;;0.20;0.20;;;20.00;99.90;;;;;;5037478;28;20017;-79
2023/07/11 06:50:40;;;;;;;0.10;0.10;;;22.40;99.90;;;;;;5035835;28;20100;-75
2023/07/11 06:53:06;;;;;;;0.10;0.10;;;22.60;99.90;;;;;;5037578;28;20029;-75
2023/07/11 06:55:32;;;;;;;2.08;1.98;;;22.50;99.90;;;;;;5037300;28;20020;-78
2023/07/11 06:57:57;;;;;;;1.02;0.80;;;22.30;99.90;;;;;;5036610;28;20049;-78
2023/07/11 07:00:26;;;;;;;0.20;0.20;;;22.40;99.90;;;;;;5037111;28;20097;-78
2023/07/11 07:02:52;;;;;;;1.20;0.63;;;22.50;99.90;;;;;;5035918;28;20606;-76
2023/07/11 07:05:18;;;;;;;0.20;0.20;;;22.70;99.90;;;;;;5037817;28;20021;-76
2023/07/11 07:07:44;;;;;;;0.10;0.10;;;22.70;99.90;;;;;;5040213;28;20526;-84
2023/07/11 07:10:10;;;;;;;0.10;0.10;;;22.80;99.90;;;;;;5039326;28;20029;-79
2023/07/11 07:12:35;;;;;;;0.77;0.77;;;22.90;99.90;;;;;;5040054;28;20017;-78
2023/07/11 07:15:01;;;;;;;0.32;0.32;;;23.00;99.90;;;;;;5040070;28;20029;-75
2023/07/11 07:17:27;;;;;;;0.10;0.10;;;23.10;99.90;;;;;;5038518;28;20063;-80
2023/07/11 07:19:53;;;;;;;4.47;4.05;;;23.20;99.90;;;;;;5039510;28;20671;-76
2023/07/11 07:22:19;;;;;;;0.10;0.10;;;25.20;99.90;;;;;;5039541;28;20021;-81
2023/07/11 07:24:44;;;;;;;2.45;0.80;;;23.40;99.90;;;;;;5039657;28;20079;-75
2023/07/11 07:27:11;;;;;;;0.10;0.10;;;23.50;99.90;;;;;;5039093;28;20455;-77
2023/07/11 07:29:37;;;;;;;0.28;0.28;;;23.50;99.90;;;;;;5039830;28;20273;-76
2023/07/11 07:32:03;;;;;;;1.45;1.35;;;23.60;99.90;;;;;;5040193;28;20025;-73
2023/07/11 07:34:29;;;;;;;0.10;0.10;;;24.70;99.90;;;;;;5039786;28;20017;-77
2023/07/11 07:36:55;;;;;;;2.10;1.95;;;23.60;99.90;;;;;;5039952;28;20580;-80
2023/07/11 07:39:20;;;;;;;0.57;0.57;;;23.70;99.90;;;;;;5039356;28;20037;-73
2023/07/11 07:41:46;;;;;;;0.55;0.55;;;23.60;99.90;;;;;;5040165;28;20507;-77
2023/07/11 07:44:13;;;;;;;0.70;0.52;;;23.80;99.90;;;;;;5039441;28;20059;-84
2023/07/11 07:46:39;;;;;;;0.35;0.35;;;23.80;99.90;;;;;;5039899;28;20047;-87
2023/07/11 07:49:05;;;;;;;0.10;0.10;;;24.00;99.90;;;;;;5039736;28;20727;-80
2023/07/11 07:51:30;;;;;;;0.20;0.20;;;24.10;99.90;;;;;;5039579;28;20028;-84
2023/07/11 07:53:56;;;;;;;0.10;0.10;;;24.20;99.90;;;;;;5039996;28;20019;-78
2023/07/11 07:56:23;;;;;;;1.20;0.75;;;24.70;99.90;;;;;;5039855;28;20043;-83
2023/07/11 07:58:50;;;;;;;0.20;0.20;;;23.30;99.90;;;;;;5037966;28;20056;-87
2023/07/11 08:01:18;;;;;;;5.78;5.47;;;24.50;99.90;;;;;;5039414;28;20021;-82
2023/07/11 08:03:44;;;;;;;0.20;0.20;;;24.60;99.90;;;;;;5039602;28;20261;-82
2023/07/11 08:06:12;;;;;;;0.13;0.13;;;24.70;99.90;;;;;;5040046;28;20659;-81
2023/07/11 08:08:39;;;;;;;1.05;1.05;;;24.80;99.90;;;;;;5039625;28;20020;-88
2023/07/11 08:11:06;;;;;;;0.90;0.80;;;24.90;99.90;;;;;;5039537;28;20618;-78
2023/07/11 08:13:34;;;;;;;0.10;0.10;;;25.00;99.90;;;;;;5039697;28;20017;-79
2023/07/11 08:16:00;;;;;;;0.10;0.10;;;25.00;99.90;;;;;;5039749;28;20017;-82
2023/07/11 08:18:26;;;;;;;0.10;0.10;;;25.10;99.70;;;;;;5038949;28;20021;-77
2023/07/11 08:20:52;;;;;;;0.20;0.20;;;25.40;99.90;;;;;;5037331;28;20017;-81
2023/07/11 08:23:17;;;;;;;0.57;0.57;;;25.40;99.20;;;;;;5038807;28;20029;-82
2023/07/11 08:25:43;;;;;;;0.10;0.10;;;25.70;98.00;;;;;;5038130;28;20021;-75
2023/07/11 08:28:09;;;;;;;0.32;0.30;;;25.70;98.00;;;;;;5037600;28;20091;-86
2023/07/11 08:30:37;;;;;;;0.10;0.10;;;25.60;97.30;;;;;;5037427;28;20676;-76
2023/07/11 08:33:03;;;;;;;0.10;0.10;;;25.70;96.60;;;;;;5036977;28;20691;-77
2023/07/11 08:35:29;;;;;;;0.10;0.10;;;25.90;97.00;;;;;;5038075;28;20017;-75
2023/07/11 08:37:55;;;;;;;0.75;0.55;;;26.10;96.70;;;;;;5037131;28;20033;-81
2023/07/11 08:40:25;;;;;;;0.17;0.17;;;26.10;96.30;;;;;;5038824;28;20025;-76
2023/07/11 08:42:52;;;;;;;0.10;0.10;;;26.20;96.10;;;;;;5036990;28;20017;-76
2023/07/11 08:45:24;;;;;;;0.50;0.50;;;26.90;96.70;;;;;;5039805;28;20045;-82
2023/07/11 08:48:18;;;;;;;0.30;0.30;;;26.50;96.10;;;;;;5042941;28;20097;-74
2023/07/11 08:51:10;;;;;;;0.20;0.20;;;26.60;96.20;;;;;;5058610;28;20039;-83
2023/07/11 08:53:46;;;;;;;0.20;0.17;;;26.80;96.00;;;;;;5058614;28;20724;-76
2023/07/11 08:56:36;;;;;;;5.22;0.57;;;27.40;96.20;;;;;;5059383;28;20053;-81
2023/07/11 08:59:24;;;;;;;0.32;0.32;;;27.30;95.80;;;;;;5058053;28;20052;-73
2023/07/11 09:02:10;;;;;;;0.90;0.90;;;27.20;95.80;;;;;;5057601;28;20020;-73
2023/07/11 09:04:42;;;;;;;1.23;1.13;;;27.40;95.80;;;;;;5056144;28;20032;-74
2023/07/11 09:07:21;;;;;;;0.00;0.00;;;27.30;95.50;;;;;;5057922;28;20021;-79
2023/07/11 09:09:47;;;;;;;0.45;0.45;;;27.50;95.30;;;;;;5056320;28;20102;-78
2023/07/11 09:12:26;;;;;;;0.75;0.52;;;27.60;95.10;;;;;;5057656;28;20265;-79
2023/07/11 09:15:10;;;;;;;2.85;1.27;;;27.50;95.20;;;;;;5039765;28;20017;-76
2023/07/11 09:17:48;;;;;;;0.28;0.28;;;27.40;95.40;;;;;;5036774;28;20555;-78
2023/07/11 09:20:22;;;;;;;0.68;0.47;;;27.50;95.30;;;;;;5037873;28;20576;-75
2023/07/11 09:23:13;;;;;;;0.50;0.50;;;27.80;95.40;;;;;;5037734;28;20013;-75
2023/07/11 09:25:43;;;;;;;0.20;0.20;;;28.00;95.50;;;;;;5037609;28;20697;-79
2023/07/11 09:28:20;;;;;;;7.60;6.90;;;28.10;94.80;;;;;;5037308;28;20434;-76
2023/07/11 09:31:08;;;;;;;0.32;0.20;;;28.30;94.50;;;;;;5037538;28;20152;-77
2023/07/11 09:33:39;;;;;;;0.00;0.00;;;28.20;94.90;;;;;;5037449;28;20029;-81
2023/07/11 09:36:21;;;;;;;4.70;0.88;;;28.50;94.10;;;;;;5037462;28;20075;-79
2023/07/11 09:39:02;;;;;;;0.30;0.30;;;28.50;94.60;;;;;;5037600;28;20029;-76
2023/07/11 09:41:49;;;;;;;0.13;0.13;;;28.80;94.50;;;;;;5037378;28;20331;-78
2023/07/11 09:44:15;;;;;;;0.52;0.52;;;29.00;94.00;;;;;;5036240;28;20028;-76
2023/07/11 09:46:41;;;;;;;0.20;0.20;;;29.00;93.90;;;;;;5037230;28;20017;-73
2023/07/11 09:49:18;;;;;;;0.77;0.45;;;29.00;94.30;;;;;;5037144;28;20096;-74
2023/07/11 09:52:04;;;;;;;0.47;0.45;;;29.20;94.00;;;;;;5037049;28;20534;-80
2023/07/11 09:54:44;;;;;;;0.13;0.13;;;29.20;93.40;;;;;;5035899;28;20078;-73
2023/07/11 09:57:11;;;;;;;0.25;0.25;;;29.30;93.00;;;;;;5037304;28;20598;-73
2023/07/11 09:59:37;;;;;;;0.57;0.55;;;29.30;92.80;;;;;;5037065;28;20122;-74
2023/07/11 10:02:04;;;;;;;3.30;0.85;;;27.30;93.10;;;;;;5036090;28;20029;-74
2023/07/11 10:04:31;;;;;;;0.45;0.45;;;29.80;93.30;;;;;;5036839;28;20013;-79
2023/07/11 10:07:02;;;;;;;10.70;2.65;;;29.90;92.70;;;;;;5037221;28;20651;-74
2023/07/11 10:09:45;;;;;;;1.33;1.33;;;30.00;92.50;;;;;;5037064;28;20017;-74
2023/07/11 10:12:24;;;;;;;0.20;0.20;;;29.20;91.40;;;;;;5035684;28;20037;-74
2023/07/11 10:14:59;;;;;;;1.65;1.42;;;30.00;92.00;;;;;;5037186;28;20028;-74
2023/07/11 10:17:32;;;;;;;3.03;2.08;;;30.00;91.80;;;;;;5036890;28;20025;-74
2023/07/11 10:20:00;;;;;;;0.32;0.20;;;30.10;91.90;;;;;;5036164;28;20025;-76
2023/07/11 10:22:29;;;;;;;1.00;0.73;;;30.00;91.70;;;;;;5037346;28;20019;-74
2023/07/11 10:25:18;;;;;;;0.90;0.90;;;30.20;91.90;;;;;;5037564;28;20590;-80
2023/07/11 10:27:57;;;;;;;4.30;2.05;;;28.30;91.10;;;;;;5026028;28;20132;-78
2023/07/11 10:30:26;;;;;;;0.35;0.35;;;30.40;91.20;;;;;;5036920;28;20107;-74
2023/07/11 10:33:00;;;;;;;1.10;0.63;;;30.30;91.50;;;;;;5037909;28;20044;-74
2023/07/11 10:35:26;;;;;;;0.28;0.28;;;30.60;91.00;;;;;;5037304;28;20668;-74
2023/07/11 10:37:53;;;;;;;0.57;0.57;;;30.50;90.80;;;;;;5036328;28;20029;-77
2023/07/11 10:40:31;;;;;;;1.58;1.33;;;30.80;91.00;;;;;;5037932;28;20037;-74
2023/07/11 10:43:20;;;;;;;0.75;0.30;;;31.00;90.50;;;;;;5041996;28;20021;-74
2023/07/11 10:45:48;;;;;;;0.82;0.80;;;31.20;90.40;;;;;;5021440;28;20028;-75
2023/07/11 10:48:39;;;;;;;1.48;1.23;;;31.50;90.40;;;;;;5020519;28;20033;-80
2023/07/11 10:51:10;;;;;;;0.30;0.30;;;31.60;89.50;;;;;;5021045;28;20018;-77
2023/07/11 10:53:42;;;;;;;2.63;1.90;;;31.50;88.40;;;;;;5020400;28;20790;-78
2023/07/11 10:56:24;;;;;;;0.52;0.52;;;31.60;88.40;;;;;;5019149;28;20029;-74
2023/07/11 10:58:50;;;;;;;1.33;1.23;;;31.80;88.00;;;;;;5020254;28;20050;-79
2023/07/11 11:01:40;;;;;;;0.55;0.45;;;32.00;87.90;;;;;;5020836;28;20021;-78
2023/07/11 11:04:18;;;;;;;0.40;0.22;;;32.30;87.50;;;;;;5019898;28;20021;-78
2023/07/11 11:07:19;;;;;;;0.80;0.77;;;32.60;84.80;;;;;;5021525;28;20021;-75
2023/07/11 11:10:22;;;;;;;1.23;0.43;;;32.90;81.40;;;;;;5001305;28;20713;-75
2023/07/11 11:13:00;;;;;;;0.30;0.30;;;32.80;80.10;;;;;;4998082;28;20033;-84
2023/07/11 11:16:01;;;;;;;1.95;0.68;;;32.80;81.10;;;;;;4982473;28;20038;-80
2023/07/11 11:18:33;;;;;;;0.13;0.13;;;33.10;80.60;;;;;;4970665;28;20405;-74
2023/07/11 11:21:08;;;;;;;0.77;0.60;;;33.20;76.40;;;;;;4978502;28;20038;-82
2023/07/11 11:23:40;;;;;;;1.15;0.88;;;33.60;77.50;;;;;;4978307;28;20848;-73
2023/07/11 11:26:26;;;;;;;1.48;1.15;;;32.50;74.70;;;;;;4978155;28;20034;-76
2023/07/11 11:28:54;;;;;;;0.52;0.50;;;34.20;75.10;;;;;;4978028;28;20046;-82
2023/07/11 11:31:29;;;;;;;4.53;4.15;;;34.60;76.40;;;;;;4977960;28;20026;-74
2023/07/11 11:34:17;;;;;;;1.20;0.93;;;34.70;75.40;;;;;;4978109;28;20037;-77
2023/07/11 11:36:49;;;;;;;0.25;0.25;;;34.70;73.00;;;;;;4961533;28;20114;-77
2023/07/11 11:39:43;;;;;;;0.63;0.50;;;34.90;72.80;;;;;;4977668;28;20046;-82
2023/07/11 11:42:20;;;;;;;0.68;0.47;;;35.20;73.90;;;;;;4977604;28;20121;-76
2023/07/11 11:45:02;;;;;;;0.85;0.50;;;35.60;73.90;;;;;;4986448;28;20577;-80
2023/07/11 11:47:29;;;;;;;1.03;0.70;;;36.00;72.10;;;;;;5020007;28;20029;-80
2023/07/11 11:49:57;;;;;;;1.08;0.65;;;36.10;69.60;;;;;;5019719;28;20025;-77
2023/07/11 11:52:24;;;;;;;0.95;0.75;;;36.00;69.80;;;;;;5019464;28;20660;-84
2023/07/11 11:54:50;;;;;;;0.93;0.70;;;36.40;70.20;;;;;;5019717;28;20162;-79
2023/07/11 11:57:23;;;;;;;1.35;0.75;;;36.60;70.40;;;;;;5019283;28;20122;-74
2023/07/11 11:59:50;;;;;;;0.75;0.50;;;37.20;67.60;;;;;;5019380;28;20091;-76
2023/07/11 12:02:33;;;;;;;0.20;0.20;;;37.40;67.80;;;;;;5019398;28;20028;-76
2023/07/11 12:05:16;;;;;;;0.52;0.32;;;37.60;68.20;;;;;;5019273;28;20792;-75
2023/07/11 12:07:43;;;;;;;0.80;0.80;;;37.70;65.40;;;;;;5018385;28;20024;-74
2023/07/11 12:10:19;;;;;;;1.55;0.85;;;38.00;63.60;;;;;;5019592;28;20266;-76
2023/07/11 12:13:06;;;;;;;0.28;0.28;;;37.60;64.70;;;;;;5019238;28;20025;-74
2023/07/11 12:15:37;;;;;;;2.78;0.52;;;37.90;55.80;;;;;;5032690;28;20024;-74
2023/07/11 12:18:14;;;;;;;;;;;37.40;57.70;;;;;;5038888;28;20118;-75
2023/07/11 12:20:39;;;;;;;0.40;0.40;;;38.40;57.60;;;;;;5039289;28;19904;-74
2023/07/11 12:23:12;;;;;;;0.47;0.40;;;39.00;58.90;;;;;;5038502;28;20663;-74
2023/07/11 12:25:38;;;;;;;0.63;0.40;;;39.30;58.30;;;;;;5038628;28;20017;-73
2023/07/11 12:28:04;;;;;;;3.67;0.90;;;39.90;58.30;;;;;;5038883;28;20086;-73
2023/07/11 12:30:41;;;;;;;0.45;0.40;;;40.40;56.70;;;;;;5038319;28;20029;-73
2023/07/11 12:33:32;;;;;;;0.40;0.40;;;40.10;52.40;;;;;;5038485;28;20013;-73
2023/07/11 12:36:07;;;;;;;0.85;0.70;;;40.30;53.30;;;;;;5038853;28;20032;-72
2023/07/11 12:38:55;;;;;;;0.80;0.65;;;40.20;54.60;;;;;;5038503;28;20033;-76
2023/07/11 12:41:44;;;;;;;1.02;0.50;;;40.60;53.40;;;;;;5039160;28;20147;-74
2023/07/11 12:44:13;;;;;;;0.35;0.35;;;41.00;53.90;;;;;;5037648;28;20351;-74
2023/07/11 12:46:40;;;;;;;0.47;0.47;;;37.90;50.00;;;;;;5038567;28;20032;-74
2023/07/11 12:49:24;;;;;;;0.50;0.50;;;41.50;51.40;;;;;;5038639;28;20017;-75
2023/07/11 12:51:49;;;;;;;0.52;0.45;;;41.80;50.90;;;;;;5038051;28;20017;-75
2023/07/11 12:54:18;;;;;;;0.98;0.63;;;42.00;50.40;;;;;;5038786;28;20414;-82
2023/07/11 12:56:47;;;;;;;0.10;0.10;;;41.60;48.60;;;;;;5036550;28;20036;-79
2023/07/11 12:59:27;;;;;;;0.38;0.20;;;41.80;46.80;;;;;;5038032;28;20033;-80
2023/07/11 13:01:59;;;;;;;0.28;0.28;;;42.00;46.40;;;;;;5037641;28;20017;-75